sensor_id;sensor_type;location;lat;lon;timestamp;P1;durP1;ratioP1;P2;durP2;ratioP2
68216;SDS011;55037;52.354;4.992;2023-04-19T00:01:09;10.25;;;6.72;;
68216;SDS011;55037;52.354;4.992;2023-04-19T00:03:37;12.20;;;7.63;;
68216;SDS011;55037;52.354;4.992;2023-04-19T00:06:05;9.15;;;6.88;;
68216;SDS011;55037;52.354;4.992;2023-04-19T00:08:34;11.95;;;7.30;;
68216;SDS011;55037;52.354;4.992;2023-04-19T00:11:01;9.85;;;6.68;;
68216;SDS011;55037;52.354;4.992;2023-04-19T00:13:28;12.07;;;7.45;;
68216;SDS011;55037;52.354;4.992;2023-04-19T00:15:55;14.57;;;7.60;;
68216;SDS011;55037;52.354;4.992;2023-04-19T00:18:23;14.43;;;7.85;;
68216;SDS011;55037;52.354;4.992;2023-04-19T00:20:50;13.57;;;6.90;;
68216;SDS011;55037;52.354;4.992;2023-04-19T00:23:17;14.95;;;7.72;;
68216;SDS011;55037;52.354;4.992;2023-04-19T00:25:45;11.65;;;7.88;;
68216;SDS011;55037;52.354;4.992;2023-04-19T00:28:12;15.53;;;6.93;;
68216;SDS011;55037;52.354;4.992;2023-04-19T00:30:41;11.85;;;7.80;;
68216;SDS011;55037;52.354;4.992;2023-04-19T00:33:09;11.52;;;7.40;;
68216;SDS011;55037;52.354;4.992;2023-04-19T00:35:39;13.73;;;8.15;;
68216;SDS011;55037;52.354;4.992;2023-04-19T00:38:07;13.32;;;7.25;;
68216;SDS011;55037;52.354;4.992;2023-04-19T00:40:36;10.33;;;6.47;;
68216;SDS011;55037;52.354;4.992;2023-04-19T00:43:03;12.13;;;6.47;;
68216;SDS011;55037;52.354;4.992;2023-04-19T00:45:33;12.35;;;7.90;;
68216;SDS011;55037;52.354;4.992;2023-04-19T00:48:01;12.43;;;8.32;;
68216;SDS011;55037;52.354;4.992;2023-04-19T00:50:29;14.05;;;8.50;;
68216;SDS011;55037;52.354;4.992;2023-04-19T00:52:57;14.33;;;8.70;;
68216;SDS011;55037;52.354;4.992;2023-04-19T00:55:27;13.32;;;7.75;;
68216;SDS011;55037;52.354;4.992;2023-04-19T00:57:54;13.55;;;8.15;;
68216;SDS011;55037;52.354;4.992;2023-04-19T01:00:21;14.13;;;8.68;;
68216;SDS011;55037;52.354;4.992;2023-04-19T01:02:50;14.05;;;9.48;;
68216;SDS011;55037;52.354;4.992;2023-04-19T01:05:18;12.90;;;8.40;;
68216;SDS011;55037;52.354;4.992;2023-04-19T01:07:45;13.77;;;8.32;;
68216;SDS011;55037;52.354;4.992;2023-04-19T01:10:13;14.68;;;8.18;;
68216;SDS011;55037;52.354;4.992;2023-04-19T01:12:41;11.50;;;7.45;;
68216;SDS011;55037;52.354;4.992;2023-04-19T01:15:10;17.25;;;8.32;;
68216;SDS011;55037;52.354;4.992;2023-04-19T01:17:37;13.33;;;8.40;;
68216;SDS011;55037;52.354;4.992;2023-04-19T01:20:05;17.10;;;8.38;;
68216;SDS011;55037;52.354;4.992;2023-04-19T01:22:34;14.00;;;7.90;;
68216;SDS011;55037;52.354;4.992;2023-04-19T01:25:03;16.40;;;8.45;;
68216;SDS011;55037;52.354;4.992;2023-04-19T01:27:33;13.68;;;8.82;;
68216;SDS011;55037;52.354;4.992;2023-04-19T01:30:01;14.53;;;8.87;;
68216;SDS011;55037;52.354;4.992;2023-04-19T01:32:28;14.93;;;8.45;;
68216;SDS011;55037;52.354;4.992;2023-04-19T01:34:56;13.52;;;8.88;;
68216;SDS011;55037;52.354;4.992;2023-04-19T01:37:23;15.55;;;8.80;;
68216;SDS011;55037;52.354;4.992;2023-04-19T01:39:51;15.00;;;8.80;;
68216;SDS011;55037;52.354;4.992;2023-04-19T01:42:18;15.60;;;8.90;;
68216;SDS011;55037;52.354;4.992;2023-04-19T01:44:45;14.07;;;8.63;;
68216;SDS011;55037;52.354;4.992;2023-04-19T01:47:12;12.48;;;7.72;;
68216;SDS011;55037;52.354;4.992;2023-04-19T01:49:40;17.17;;;9.40;;
68216;SDS011;55037;52.354;4.992;2023-04-19T01:52:07;14.98;;;9.48;;
68216;SDS011;55037;52.354;4.992;2023-04-19T01:54:34;15.63;;;9.10;;
68216;SDS011;55037;52.354;4.992;2023-04-19T01:57:02;13.40;;;7.70;;
68216;SDS011;55037;52.354;4.992;2023-04-19T01:59:29;16.33;;;8.23;;
68216;SDS011;55037;52.354;4.992;2023-04-19T02:01:57;17.50;;;8.52;;
68216;SDS011;55037;52.354;4.992;2023-04-19T02:04:24;13.75;;;8.65;;
68216;SDS011;55037;52.354;4.992;2023-04-19T02:06:52;14.27;;;8.70;;
68216;SDS011;55037;52.354;4.992;2023-04-19T02:09:19;18.60;;;8.75;;
68216;SDS011;55037;52.354;4.992;2023-04-19T02:11:46;14.40;;;9.40;;
68216;SDS011;55037;52.354;4.992;2023-04-19T02:14:15;15.77;;;9.80;;
68216;SDS011;55037;52.354;4.992;2023-04-19T02:16:43;15.32;;;8.88;;
68216;SDS011;55037;52.354;4.992;2023-04-19T02:19:10;15.80;;;8.70;;
68216;SDS011;55037;52.354;4.992;2023-04-19T02:21:38;14.98;;;9.80;;
68216;SDS011;55037;52.354;4.992;2023-04-19T02:24:05;16.52;;;9.57;;
68216;SDS011;55037;52.354;4.992;2023-04-19T02:26:32;15.15;;;9.52;;
68216;SDS011;55037;52.354;4.992;2023-04-19T02:29:00;15.02;;;9.57;;
68216;SDS011;55037;52.354;4.992;2023-04-19T02:31:27;15.93;;;9.60;;
68216;SDS011;55037;52.354;4.992;2023-04-19T02:33:54;15.65;;;9.68;;
68216;SDS011;55037;52.354;4.992;2023-04-19T02:36:21;15.27;;;9.48;;
68216;SDS011;55037;52.354;4.992;2023-04-19T02:38:49;16.58;;;10.27;;
68216;SDS011;55037;52.354;4.992;2023-04-19T02:41:18;14.80;;;9.35;;
68216;SDS011;55037;52.354;4.992;2023-04-19T02:43:45;16.17;;;9.20;;
68216;SDS011;55037;52.354;4.992;2023-04-19T02:46:12;19.95;;;10.77;;
68216;SDS011;55037;52.354;4.992;2023-04-19T02:48:40;16.83;;;9.45;;
68216;SDS011;55037;52.354;4.992;2023-04-19T02:51:07;16.00;;;8.98;;
68216;SDS011;55037;52.354;4.992;2023-04-19T02:53:40;16.65;;;9.98;;
68216;SDS011;55037;52.354;4.992;2023-04-19T02:56:07;14.90;;;9.40;;
68216;SDS011;55037;52.354;4.992;2023-04-19T02:58:35;18.15;;;10.10;;
68216;SDS011;55037;52.354;4.992;2023-04-19T03:01:04;15.73;;;9.32;;
68216;SDS011;55037;52.354;4.992;2023-04-19T03:03:32;17.23;;;10.38;;
68216;SDS011;55037;52.354;4.992;2023-04-19T03:05:59;18.00;;;9.88;;
68216;SDS011;55037;52.354;4.992;2023-04-19T03:08:28;13.50;;;9.30;;
68216;SDS011;55037;52.354;4.992;2023-04-19T03:10:55;19.25;;;9.65;;
68216;SDS011;55037;52.354;4.992;2023-04-19T03:13:22;15.23;;;8.65;;
68216;SDS011;55037;52.354;4.992;2023-04-19T03:15:50;16.10;;;9.70;;
68216;SDS011;55037;52.354;4.992;2023-04-19T03:18:20;17.67;;;9.05;;
68216;SDS011;55037;52.354;4.992;2023-04-19T03:20:49;14.37;;;9.40;;
68216;SDS011;55037;52.354;4.992;2023-04-19T03:23:16;16.45;;;9.68;;
68216;SDS011;55037;52.354;4.992;2023-04-19T03:25:44;14.57;;;9.55;;
68216;SDS011;55037;52.354;4.992;2023-04-19T03:28:23;13.82;;;9.13;;
68216;SDS011;55037;52.354;4.992;2023-04-19T03:31:16;14.15;;;8.85;;
68216;SDS011;55037;52.354;4.992;2023-04-19T03:33:47;14.87;;;8.83;;
68216;SDS011;55037;52.354;4.992;2023-04-19T03:36:15;15.95;;;9.70;;
68216;SDS011;55037;52.354;4.992;2023-04-19T03:38:44;16.98;;;8.75;;
68216;SDS011;55037;52.354;4.992;2023-04-19T03:41:21;14.45;;;9.05;;
68216;SDS011;55037;52.354;4.992;2023-04-19T03:44:01;17.33;;;9.32;;
68216;SDS011;55037;52.354;4.992;2023-04-19T03:46:28;16.33;;;8.77;;
68216;SDS011;55037;52.354;4.992;2023-04-19T03:48:59;14.82;;;9.40;;
68216;SDS011;55037;52.354;4.992;2023-04-19T03:51:27;16.70;;;9.88;;
68216;SDS011;55037;52.354;4.992;2023-04-19T03:53:54;15.30;;;9.45;;
68216;SDS011;55037;52.354;4.992;2023-04-19T03:56:22;15.68;;;8.90;;
68216;SDS011;55037;52.354;4.992;2023-04-19T03:58:50;15.37;;;9.20;;
68216;SDS011;55037;52.354;4.992;2023-04-19T04:01:21;13.57;;;8.65;;
68216;SDS011;55037;52.354;4.992;2023-04-19T04:03:51;15.48;;;8.85;;
68216;SDS011;55037;52.354;4.992;2023-04-19T04:06:19;14.13;;;8.65;;
68216;SDS011;55037;52.354;4.992;2023-04-19T04:08:47;12.25;;;8.13;;
68216;SDS011;55037;52.354;4.992;2023-04-19T04:11:14;13.63;;;8.67;;
68216;SDS011;55037;52.354;4.992;2023-04-19T04:13:42;14.25;;;8.25;;
68216;SDS011;55037;52.354;4.992;2023-04-19T04:16:17;16.40;;;8.55;;
68216;SDS011;55037;52.354;4.992;2023-04-19T04:18:44;14.73;;;8.52;;
68216;SDS011;55037;52.354;4.992;2023-04-19T04:21:13;13.88;;;8.25;;
68216;SDS011;55037;52.354;4.992;2023-04-19T04:23:44;18.33;;;9.03;;
68216;SDS011;55037;52.354;4.992;2023-04-19T04:26:20;13.38;;;8.48;;
68216;SDS011;55037;52.354;4.992;2023-04-19T04:29:06;12.98;;;7.93;;
68216;SDS011;55037;52.354;4.992;2023-04-19T04:31:35;14.65;;;8.00;;
68216;SDS011;55037;52.354;4.992;2023-04-19T04:34:03;14.90;;;8.20;;
68216;SDS011;55037;52.354;4.992;2023-04-19T04:36:33;16.00;;;8.60;;
68216;SDS011;55037;52.354;4.992;2023-04-19T04:39:01;9.48;;;6.78;;
68216;SDS011;55037;52.354;4.992;2023-04-19T04:41:29;10.52;;;6.95;;
68216;SDS011;55037;52.354;4.992;2023-04-19T04:43:57;13.30;;;8.00;;
68216;SDS011;55037;52.354;4.992;2023-04-19T04:46:39;13.32;;;7.25;;
68216;SDS011;55037;52.354;4.992;2023-04-19T04:49:08;14.47;;;7.93;;
68216;SDS011;55037;52.354;4.992;2023-04-19T04:51:35;12.40;;;7.85;;
68216;SDS011;55037;52.354;4.992;2023-04-19T04:54:04;13.02;;;7.05;;
68216;SDS011;55037;52.354;4.992;2023-04-19T04:56:31;11.98;;;6.35;;
68216;SDS011;55037;52.354;4.992;2023-04-19T04:58:59;12.05;;;7.53;;
68216;SDS011;55037;52.354;4.992;2023-04-19T05:01:31;12.47;;;7.40;;
68216;SDS011;55037;52.354;4.992;2023-04-19T05:03:59;9.18;;;5.78;;
68216;SDS011;55037;52.354;4.992;2023-04-19T05:06:27;13.35;;;6.65;;
68216;SDS011;55037;52.354;4.992;2023-04-19T05:08:54;10.27;;;7.05;;
68216;SDS011;55037;52.354;4.992;2023-04-19T05:11:39;10.80;;;6.95;;
68216;SDS011;55037;52.354;4.992;2023-04-19T05:14:06;12.23;;;6.87;;
68216;SDS011;55037;52.354;4.992;2023-04-19T05:16:34;9.93;;;6.47;;
68216;SDS011;55037;52.354;4.992;2023-04-19T05:19:02;10.43;;;6.10;;
68216;SDS011;55037;52.354;4.992;2023-04-19T05:21:33;9.98;;;5.90;;
68216;SDS011;55037;52.354;4.992;2023-04-19T05:24:03;14.65;;;6.43;;
68216;SDS011;55037;52.354;4.992;2023-04-19T05:26:33;12.40;;;6.40;;
68216;SDS011;55037;52.354;4.992;2023-04-19T05:29:01;11.43;;;6.15;;
68216;SDS011;55037;52.354;4.992;2023-04-19T05:31:42;10.90;;;5.55;;
68216;SDS011;55037;52.354;4.992;2023-04-19T05:34:17;13.65;;;5.95;;
68216;SDS011;55037;52.354;4.992;2023-04-19T05:36:47;13.60;;;6.15;;
68216;SDS011;55037;52.354;4.992;2023-04-19T05:39:15;12.53;;;5.80;;
68216;SDS011;55037;52.354;4.992;2023-04-19T05:41:42;16.00;;;6.07;;
68216;SDS011;55037;52.354;4.992;2023-04-19T05:44:10;10.35;;;5.47;;
68216;SDS011;55037;52.354;4.992;2023-04-19T05:46:37;11.75;;;6.30;;
68216;SDS011;55037;52.354;4.992;2023-04-19T05:49:07;11.18;;;6.35;;
68216;SDS011;55037;52.354;4.992;2023-04-19T05:51:53;9.07;;;5.57;;
68216;SDS011;55037;52.354;4.992;2023-04-19T05:54:28;11.15;;;6.13;;
68216;SDS011;55037;52.354;4.992;2023-04-19T05:57:03;9.48;;;5.18;;
68216;SDS011;55037;52.354;4.992;2023-04-19T05:59:30;9.07;;;5.68;;
68216;SDS011;55037;52.354;4.992;2023-04-19T06:01:58;10.70;;;3.45;;
68216;SDS011;55037;52.354;4.992;2023-04-19T06:04:27;9.53;;;4.67;;
68216;SDS011;55037;52.354;4.992;2023-04-19T06:06:54;11.10;;;5.15;;
68216;SDS011;55037;52.354;4.992;2023-04-19T06:09:22;8.30;;;5.03;;
68216;SDS011;55037;52.354;4.992;2023-04-19T06:11:49;9.80;;;5.05;;
68216;SDS011;55037;52.354;4.992;2023-04-19T06:14:17;15.80;;;4.75;;
68216;SDS011;55037;52.354;4.992;2023-04-19T06:16:45;8.93;;;5.03;;
68216;SDS011;55037;52.354;4.992;2023-04-19T06:19:12;14.18;;;5.30;;
68216;SDS011;55037;52.354;4.992;2023-04-19T06:21:40;8.20;;;4.47;;
68216;SDS011;55037;52.354;4.992;2023-04-19T06:24:07;9.85;;;4.63;;
68216;SDS011;55037;52.354;4.992;2023-04-19T06:26:34;7.75;;;5.10;;
68216;SDS011;55037;52.354;4.992;2023-04-19T06:29:02;8.77;;;4.80;;
68216;SDS011;55037;52.354;4.992;2023-04-19T06:31:29;8.85;;;4.75;;
68216;SDS011;55037;52.354;4.992;2023-04-19T06:33:56;11.40;;;5.50;;
68216;SDS011;55037;52.354;4.992;2023-04-19T06:36:23;10.85;;;4.95;;
68216;SDS011;55037;52.354;4.992;2023-04-19T06:38:51;11.77;;;5.28;;
68216;SDS011;55037;52.354;4.992;2023-04-19T06:41:18;8.50;;;3.53;;
68216;SDS011;55037;52.354;4.992;2023-04-19T06:43:45;15.13;;;4.70;;
68216;SDS011;55037;52.354;4.992;2023-04-19T06:46:12;9.68;;;4.50;;
68216;SDS011;55037;52.354;4.992;2023-04-19T06:48:40;7.32;;;4.38;;
68216;SDS011;55037;52.354;4.992;2023-04-19T06:51:07;9.95;;;4.10;;
68216;SDS011;55037;52.354;4.992;2023-04-19T06:53:35;14.33;;;4.23;;
68216;SDS011;55037;52.354;4.992;2023-04-19T06:56:03;7.15;;;3.67;;
68216;SDS011;55037;52.354;4.992;2023-04-19T06:58:31;11.20;;;4.13;;
68216;SDS011;55037;52.354;4.992;2023-04-19T07:01:02;9.32;;;4.00;;
68216;SDS011;55037;52.354;4.992;2023-04-19T07:03:30;8.05;;;4.32;;
68216;SDS011;55037;52.354;4.992;2023-04-19T07:05:58;8.77;;;4.37;;
68216;SDS011;55037;52.354;4.992;2023-04-19T07:08:25;6.72;;;3.47;;
68216;SDS011;55037;52.354;4.992;2023-04-19T07:11:08;9.32;;;3.78;;
68216;SDS011;55037;52.354;4.992;2023-04-19T07:13:35;7.88;;;3.38;;
68216;SDS011;55037;52.354;4.992;2023-04-19T07:16:03;11.48;;;3.30;;
68216;SDS011;55037;52.354;4.992;2023-04-19T07:18:31;7.80;;;4.00;;
68216;SDS011;55037;52.354;4.992;2023-04-19T07:20:58;6.30;;;3.53;;
68216;SDS011;55037;52.354;4.992;2023-04-19T07:23:25;8.05;;;3.83;;
68216;SDS011;55037;52.354;4.992;2023-04-19T07:25:53;13.73;;;3.97;;
68216;SDS011;55037;52.354;4.992;2023-04-19T07:28:20;8.43;;;3.80;;
68216;SDS011;55037;52.354;4.992;2023-04-19T07:30:47;6.90;;;3.60;;
68216;SDS011;55037;52.354;4.992;2023-04-19T07:33:14;6.22;;;3.88;;
68216;SDS011;55037;52.354;4.992;2023-04-19T07:35:42;5.43;;;3.58;;
68216;SDS011;55037;52.354;4.992;2023-04-19T07:38:09;6.18;;;3.90;;
68216;SDS011;55037;52.354;4.992;2023-04-19T07:40:37;6.38;;;3.33;;
68216;SDS011;55037;52.354;4.992;2023-04-19T07:43:04;7.30;;;3.80;;
68216;SDS011;55037;52.354;4.992;2023-04-19T07:45:32;8.20;;;3.85;;
68216;SDS011;55037;52.354;4.992;2023-04-19T07:47:59;6.70;;;3.75;;
68216;SDS011;55037;52.354;4.992;2023-04-19T07:50:27;5.78;;;3.38;;
68216;SDS011;55037;52.354;4.992;2023-04-19T07:52:54;7.35;;;3.10;;
68216;SDS011;55037;52.354;4.992;2023-04-19T07:55:22;27.27;;;3.43;;
68216;SDS011;55037;52.354;4.992;2023-04-19T07:57:49;8.73;;;3.03;;
68216;SDS011;55037;52.354;4.992;2023-04-19T08:00:17;9.50;;;3.50;;
68216;SDS011;55037;52.354;4.992;2023-04-19T08:02:47;11.38;;;3.38;;
68216;SDS011;55037;52.354;4.992;2023-04-19T08:05:15;6.15;;;3.42;;
68216;SDS011;55037;52.354;4.992;2023-04-19T08:07:43;5.85;;;2.80;;
68216;SDS011;55037;52.354;4.992;2023-04-19T08:10:11;5.75;;;3.20;;
68216;SDS011;55037;52.354;4.992;2023-04-19T08:12:39;6.65;;;3.47;;
68216;SDS011;55037;52.354;4.992;2023-04-19T08:15:27;13.73;;;3.38;;
68216;SDS011;55037;52.354;4.992;2023-04-19T08:18:14;11.02;;;3.60;;
68216;SDS011;55037;52.354;4.992;2023-04-19T08:20:42;9.48;;;3.45;;
68216;SDS011;55037;52.354;4.992;2023-04-19T08:23:09;12.25;;;3.60;;
68216;SDS011;55037;52.354;4.992;2023-04-19T08:25:48;6.13;;;3.10;;
68216;SDS011;55037;52.354;4.992;2023-04-19T08:28:16;6.60;;;2.95;;
68216;SDS011;55037;52.354;4.992;2023-04-19T08:30:44;6.18;;;3.05;;
68216;SDS011;55037;52.354;4.992;2023-04-19T08:33:12;7.63;;;2.92;;
68216;SDS011;55037;52.354;4.992;2023-04-19T08:35:39;12.45;;;3.13;;
68216;SDS011;55037;52.354;4.992;2023-04-19T08:38:07;9.40;;;3.08;;
68216;SDS011;55037;52.354;4.992;2023-04-19T08:40:37;7.10;;;2.72;;
68216;SDS011;55037;52.354;4.992;2023-04-19T08:43:12;11.32;;;2.70;;
68216;SDS011;55037;52.354;4.992;2023-04-19T08:45:40;10.10;;;2.95;;
68216;SDS011;55037;52.354;4.992;2023-04-19T08:48:08;8.13;;;3.10;;
68216;SDS011;55037;52.354;4.992;2023-04-19T08:50:40;7.03;;;2.75;;
68216;SDS011;55037;52.354;4.992;2023-04-19T08:53:28;7.90;;;2.85;;
68216;SDS011;55037;52.354;4.992;2023-04-19T08:55:56;21.20;;;3.30;;
68216;SDS011;55037;52.354;4.992;2023-04-19T08:58:43;6.57;;;2.50;;
68216;SDS011;55037;52.354;4.992;2023-04-19T09:01:30;5.35;;;2.63;;
68216;SDS011;55037;52.354;4.992;2023-04-19T09:04:03;4.13;;;2.50;;
68216;SDS011;55037;52.354;4.992;2023-04-19T09:06:53;4.82;;;2.78;;
68216;SDS011;55037;52.354;4.992;2023-04-19T09:09:22;5.22;;;2.63;;
68216;SDS011;55037;52.354;4.992;2023-04-19T09:12:14;5.32;;;2.60;;
68216;SDS011;55037;52.354;4.992;2023-04-19T09:14:44;6.90;;;2.50;;
68216;SDS011;55037;52.354;4.992;2023-04-19T09:17:28;5.80;;;2.70;;
68216;SDS011;55037;52.354;4.992;2023-04-19T09:19:56;3.70;;;2.50;;
68216;SDS011;55037;52.354;4.992;2023-04-19T09:22:25;4.80;;;2.40;;
68216;SDS011;55037;52.354;4.992;2023-04-19T09:24:52;5.93;;;2.85;;
68216;SDS011;55037;52.354;4.992;2023-04-19T09:27:39;7.00;;;3.20;;
68216;SDS011;55037;52.354;4.992;2023-04-19T09:30:07;4.45;;;2.80;;
68216;SDS011;55037;52.354;4.992;2023-04-19T09:32:47;4.25;;;2.92;;
68216;SDS011;55037;52.354;4.992;2023-04-19T09:35:15;5.78;;;2.88;;
68216;SDS011;55037;52.354;4.992;2023-04-19T09:37:42;4.80;;;2.90;;
68216;SDS011;55037;52.354;4.992;2023-04-19T09:40:29;3.83;;;2.80;;
68216;SDS011;55037;52.354;4.992;2023-04-19T09:42:57;6.53;;;2.95;;
68216;SDS011;55037;52.354;4.992;2023-04-19T09:45:44;6.78;;;3.10;;
68216;SDS011;55037;52.354;4.992;2023-04-19T09:48:12;5.38;;;3.17;;
68216;SDS011;55037;52.354;4.992;2023-04-19T09:50:52;4.70;;;3.13;;
68216;SDS011;55037;52.354;4.992;2023-04-19T09:53:29;8.13;;;3.00;;
68216;SDS011;55037;52.354;4.992;2023-04-19T09:56:00;4.93;;;2.92;;
68216;SDS011;55037;52.354;4.992;2023-04-19T09:58:30;9.35;;;3.20;;
68216;SDS011;55037;52.354;4.992;2023-04-19T10:01:15;6.95;;;2.60;;
68216;SDS011;55037;52.354;4.992;2023-04-19T10:03:47;6.50;;;3.65;;
68216;SDS011;55037;52.354;4.992;2023-04-19T10:06:17;6.90;;;2.90;;
68216;SDS011;55037;52.354;4.992;2023-04-19T10:08:48;4.97;;;2.83;;
68216;SDS011;55037;52.354;4.992;2023-04-19T10:11:18;4.25;;;2.65;;
68216;SDS011;55037;52.354;4.992;2023-04-19T10:13:47;9.15;;;3.15;;
68216;SDS011;55037;52.354;4.992;2023-04-19T10:16:19;7.00;;;2.88;;
68216;SDS011;55037;52.354;4.992;2023-04-19T10:18:47;9.27;;;2.93;;
68216;SDS011;55037;52.354;4.992;2023-04-19T10:21:16;9.52;;;3.10;;
68216;SDS011;55037;52.354;4.992;2023-04-19T10:23:46;6.13;;;2.50;;
68216;SDS011;55037;52.354;4.992;2023-04-19T10:26:14;4.38;;;2.25;;
68216;SDS011;55037;52.354;4.992;2023-04-19T10:28:41;12.25;;;2.90;;
68216;SDS011;55037;52.354;4.992;2023-04-19T10:31:11;7.90;;;3.47;;
68216;SDS011;55037;52.354;4.992;2023-04-19T10:33:39;9.75;;;2.40;;
68216;SDS011;55037;52.354;4.992;2023-04-19T10:36:08;8.30;;;2.67;;
68216;SDS011;55037;52.354;4.992;2023-04-19T10:38:41;10.35;;;3.03;;
68216;SDS011;55037;52.354;4.992;2023-04-19T10:41:15;13.80;;;2.72;;
68216;SDS011;55037;52.354;4.992;2023-04-19T10:44:07;8.43;;;2.50;;
68216;SDS011;55037;52.354;4.992;2023-04-19T10:46:36;8.18;;;3.30;;
68216;SDS011;55037;52.354;4.992;2023-04-19T10:49:05;7.15;;;2.22;;
68216;SDS011;55037;52.354;4.992;2023-04-19T10:51:36;5.10;;;2.55;;
68216;SDS011;55037;52.354;4.992;2023-04-19T10:54:05;4.78;;;2.35;;
68216;SDS011;55037;52.354;4.992;2023-04-19T10:57:00;7.40;;;3.10;;
68216;SDS011;55037;52.354;4.992;2023-04-19T10:59:37;9.07;;;2.85;;
68216;SDS011;55037;52.354;4.992;2023-04-19T11:07:17;14.65;;;3.72;;
68216;SDS011;55037;52.354;4.992;2023-04-19T11:09:47;11.37;;;3.33;;
68216;SDS011;55037;52.354;4.992;2023-04-19T11:12:17;7.75;;;3.42;;
68216;SDS011;55037;52.354;4.992;2023-04-19T11:14:46;14.38;;;3.60;;
68216;SDS011;55037;52.354;4.992;2023-04-19T11:17:14;31.77;;;4.95;;
68216;SDS011;55037;52.354;4.992;2023-04-19T11:19:43;11.70;;;3.53;;
68216;SDS011;55037;52.354;4.992;2023-04-19T11:22:30;8.83;;;3.37;;
68216;SDS011;55037;52.354;4.992;2023-04-19T11:27:50;11.35;;;3.10;;
68216;SDS011;55037;52.354;4.992;2023-04-19T11:30:19;16.52;;;3.80;;
68216;SDS011;55037;52.354;4.992;2023-04-19T11:32:49;19.42;;;4.10;;
68216;SDS011;55037;52.354;4.992;2023-04-19T11:35:24;6.23;;;3.50;;
68216;SDS011;55037;52.354;4.992;2023-04-19T11:37:52;8.65;;;3.45;;
68216;SDS011;55037;52.354;4.992;2023-04-19T11:40:23;8.18;;;3.20;;
68216;SDS011;55037;52.354;4.992;2023-04-19T11:42:57;5.60;;;3.25;;
68216;SDS011;55037;52.354;4.992;2023-04-19T11:48:04;18.90;;;4.37;;
68216;SDS011;55037;52.354;4.992;2023-04-19T11:50:40;13.40;;;4.07;;
68216;SDS011;55037;52.354;4.992;2023-04-19T11:53:21;7.55;;;3.33;;
68216;SDS011;55037;52.354;4.992;2023-04-19T11:56:10;15.27;;;3.85;;
68216;SDS011;55037;52.354;4.992;2023-04-19T11:58:41;4.47;;;3.17;;
68216;SDS011;55037;52.354;4.992;2023-04-19T12:01:11;6.67;;;3.60;;
68216;SDS011;55037;52.354;4.992;2023-04-19T12:03:47;5.18;;;3.70;;
68216;SDS011;55037;52.354;4.992;2023-04-19T12:06:26;5.47;;;4.22;;
68216;SDS011;55037;52.354;4.992;2023-04-19T12:08:55;6.13;;;4.05;;
68216;SDS011;55037;52.354;4.992;2023-04-19T12:11:24;7.25;;;3.90;;
68216;SDS011;55037;52.354;4.992;2023-04-19T12:14:08;6.10;;;4.47;;
68216;SDS011;55037;52.354;4.992;2023-04-19T12:16:37;5.97;;;3.58;;
68216;SDS011;55037;52.354;4.992;2023-04-19T12:19:10;5.53;;;3.97;;
68216;SDS011;55037;52.354;4.992;2023-04-19T12:21:44;5.28;;;3.60;;
68216;SDS011;55037;52.354;4.992;2023-04-19T12:24:15;6.15;;;4.00;;
68216;SDS011;55037;52.354;4.992;2023-04-19T12:26:55;6.30;;;4.20;;
68216;SDS011;55037;52.354;4.992;2023-04-19T12:29:25;7.75;;;4.47;;
68216;SDS011;55037;52.354;4.992;2023-04-19T12:31:53;5.60;;;3.45;;
68216;SDS011;55037;52.354;4.992;2023-04-19T12:34:20;8.52;;;3.33;;
68216;SDS011;55037;52.354;4.992;2023-04-19T12:36:47;7.93;;;3.75;;
68216;SDS011;55037;52.354;4.992;2023-04-19T12:39:14;6.47;;;3.50;;
68216;SDS011;55037;52.354;4.992;2023-04-19T12:41:42;5.95;;;3.40;;
68216;SDS011;55037;52.354;4.992;2023-04-19T12:44:09;5.68;;;3.58;;
68216;SDS011;55037;52.354;4.992;2023-04-19T12:46:36;5.53;;;3.45;;
68216;SDS011;55037;52.354;4.992;2023-04-19T12:49:04;3.97;;;3.30;;
68216;SDS011;55037;52.354;4.992;2023-04-19T12:51:31;5.77;;;4.30;;
68216;SDS011;55037;52.354;4.992;2023-04-19T12:53:58;5.28;;;3.35;;
68216;SDS011;55037;52.354;4.992;2023-04-19T12:56:25;5.55;;;3.50;;
68216;SDS011;55037;52.354;4.992;2023-04-19T12:58:53;6.80;;;4.20;;
68216;SDS011;55037;52.354;4.992;2023-04-19T13:01:20;5.93;;;3.55;;
68216;SDS011;55037;52.354;4.992;2023-04-19T13:03:47;4.37;;;3.53;;
68216;SDS011;55037;52.354;4.992;2023-04-19T13:06:15;4.22;;;3.22;;
68216;SDS011;55037;52.354;4.992;2023-04-19T13:08:43;5.50;;;3.65;;
68216;SDS011;55037;52.354;4.992;2023-04-19T13:11:13;5.03;;;3.80;;
68216;SDS011;55037;52.354;4.992;2023-04-19T13:13:41;5.97;;;3.72;;
68216;SDS011;55037;52.354;4.992;2023-04-19T13:16:09;4.43;;;3.60;;
68216;SDS011;55037;52.354;4.992;2023-04-19T13:18:36;5.32;;;3.60;;
68216;SDS011;55037;52.354;4.992;2023-04-19T13:21:04;4.50;;;3.45;;
68216;SDS011;55037;52.354;4.992;2023-04-19T13:23:34;5.15;;;4.00;;
68216;SDS011;55037;52.354;4.992;2023-04-19T13:26:01;4.85;;;3.30;;
68216;SDS011;55037;52.354;4.992;2023-04-19T13:28:29;3.83;;;2.87;;
68216;SDS011;55037;52.354;4.992;2023-04-19T13:30:56;4.90;;;3.60;;
68216;SDS011;55037;52.354;4.992;2023-04-19T13:33:23;3.75;;;3.30;;
68216;SDS011;55037;52.354;4.992;2023-04-19T13:35:52;4.10;;;3.10;;
68216;SDS011;55037;52.354;4.992;2023-04-19T13:38:19;4.47;;;3.08;;
68216;SDS011;55037;52.354;4.992;2023-04-19T13:40:47;3.77;;;3.00;;
68216;SDS011;55037;52.354;4.992;2023-04-19T13:43:14;5.63;;;3.17;;
68216;SDS011;55037;52.354;4.992;2023-04-19T13:45:41;4.13;;;2.90;;
68216;SDS011;55037;52.354;4.992;2023-04-19T13:48:08;5.97;;;2.63;;
68216;SDS011;55037;52.354;4.992;2023-04-19T13:50:35;6.75;;;3.22;;
68216;SDS011;55037;52.354;4.992;2023-04-19T13:53:03;4.10;;;3.10;;
68216;SDS011;55037;52.354;4.992;2023-04-19T13:55:30;6.07;;;3.22;;
68216;SDS011;55037;52.354;4.992;2023-04-19T13:57:57;5.50;;;2.90;;
68216;SDS011;55037;52.354;4.992;2023-04-19T14:00:25;8.55;;;3.08;;
68216;SDS011;55037;52.354;4.992;2023-04-19T14:02:53;6.28;;;2.92;;
68216;SDS011;55037;52.354;4.992;2023-04-19T14:05:22;3.73;;;2.50;;
68216;SDS011;55037;52.354;4.992;2023-04-19T14:07:49;4.20;;;2.90;;
68216;SDS011;55037;52.354;4.992;2023-04-19T14:10:18;6.25;;;2.40;;
68216;SDS011;55037;52.354;4.992;2023-04-19T14:12:45;7.93;;;3.42;;
68216;SDS011;55037;52.354;4.992;2023-04-19T14:15:13;5.80;;;2.63;;
68216;SDS011;55037;52.354;4.992;2023-04-19T14:17:40;3.97;;;2.47;;
68216;SDS011;55037;52.354;4.992;2023-04-19T14:20:07;5.85;;;2.60;;
68216;SDS011;55037;52.354;4.992;2023-04-19T14:22:35;3.38;;;1.92;;
68216;SDS011;55037;52.354;4.992;2023-04-19T14:25:02;4.45;;;2.15;;
68216;SDS011;55037;52.354;4.992;2023-04-19T14:27:30;3.75;;;2.80;;
68216;SDS011;55037;52.354;4.992;2023-04-19T14:29:58;4.03;;;3.03;;
68216;SDS011;55037;52.354;4.992;2023-04-19T14:32:25;6.25;;;2.42;;
68216;SDS011;55037;52.354;4.992;2023-04-19T14:34:53;6.22;;;2.40;;
68216;SDS011;55037;52.354;4.992;2023-04-19T14:37:23;7.55;;;3.20;;
68216;SDS011;55037;52.354;4.992;2023-04-19T14:39:53;6.30;;;2.95;;
68216;SDS011;55037;52.354;4.992;2023-04-19T14:42:20;7.27;;;2.90;;
68216;SDS011;55037;52.354;4.992;2023-04-19T14:44:50;6.15;;;2.33;;
68216;SDS011;55037;52.354;4.992;2023-04-19T14:47:18;4.53;;;2.38;;
68216;SDS011;55037;52.354;4.992;2023-04-19T14:49:45;4.43;;;2.42;;
68216;SDS011;55037;52.354;4.992;2023-04-19T14:52:13;3.88;;;2.10;;
68216;SDS011;55037;52.354;4.992;2023-04-19T14:54:40;4.07;;;2.97;;
68216;SDS011;55037;52.354;4.992;2023-04-19T14:57:08;4.78;;;2.60;;
68216;SDS011;55037;52.354;4.992;2023-04-19T14:59:36;5.20;;;2.90;;
68216;SDS011;55037;52.354;4.992;2023-04-19T15:02:03;3.90;;;2.63;;
68216;SDS011;55037;52.354;4.992;2023-04-19T15:04:34;6.05;;;2.78;;
68216;SDS011;55037;52.354;4.992;2023-04-19T15:07:06;4.03;;;2.70;;